sensor_id;sensor_type;location;lat;lon;timestamp;pressure;altitude;pressure_sealevel;temperature;humidity
55610;BME280;41486;52.502;13.486;2023-01-26T00:02:18;101855.03;;;0.12;100.00
55610;BME280;41486;52.502;13.486;2023-01-26T00:04:46;101850.50;;;0.28;100.00
55610;BME280;41486;52.502;13.486;2023-01-26T00:07:14;101853.44;;;0.02;100.00
55610;BME280;41486;52.502;13.486;2023-01-26T00:09:41;101842.19;;;0.04;100.00
55610;BME280;41486;52.502;13.486;2023-01-26T00:12:09;101848.09;;;0.14;100.00
55610;BME280;41486;52.502;13.486;2023-01-26T00:14:37;101850.81;;;0.06;100.00
55610;BME280;41486;52.502;13.486;2023-01-26T00:17:20;101854.63;;;-0.24;100.00
55610;BME280;41486;52.502;13.486;2023-01-26T00:19:55;101858.94;;;-0.26;100.00
55610;BME280;41486;52.502;13.486;2023-01-26T00:22:24;101838.47;;;-0.46;100.00
55610;BME280;41486;52.502;13.486;2023-01-26T00:24:52;101835.44;;;-0.08;100.00
55610;BME280;41486;52.502;13.486;2023-01-26T00:27:20;101831.75;;;0.10;100.00
55610;BME280;41486;52.502;13.486;2023-01-26T00:29:48;101826.56;;;0.10;100.00
55610;BME280;41486;52.502;13.486;2023-01-26T00:32:16;101826.47;;;0.17;100.00
55610;BME280;41486;52.502;13.486;2023-01-26T00:34:45;101820.34;;;0.25;100.00
55610;BME280;41486;52.502;13.486;2023-01-26T00:37:17;101814.22;;;0.29;100.00
55610;BME280;41486;52.502;13.486;2023-01-26T00:39:45;101810.81;;;0.26;100.00
55610;BME280;41486;52.502;13.486;2023-01-26T00:42:13;101809.31;;;0.09;100.00
55610;BME280;41486;52.502;13.486;2023-01-26T00:44:42;101810.56;;;-0.17;100.00
55610;BME280;41486;52.502;13.486;2023-01-26T00:47:12;101810.66;;;-0.27;100.00
55610;BME280;41486;52.502;13.486;2023-01-26T00:49:40;101811.38;;;-0.14;100.00
55610;BME280;41486;52.502;13.486;2023-01-26T00:52:10;101811.03;;;0.12;100.00
55610;BME280;41486;52.502;13.486;2023-01-26T00:54:38;101808.88;;;-0.24;100.00
55610;BME280;41486;52.502;13.486;2023-01-26T00:57:06;101807.88;;;-0.12;100.00
55610;BME280;41486;52.502;13.486;2023-01-26T00:59:35;101813.81;;;-0.04;100.00
55610;BME280;41486;52.502;13.486;2023-01-26T01:02:02;101817.25;;;-0.02;100.00
55610;BME280;41486;52.502;13.486;2023-01-26T01:04:31;101807.78;;;-0.04;100.00
55610;BME280;41486;52.502;13.486;2023-01-26T01:06:59;101808.91;;;-0.25;100.00
55610;BME280;41486;52.502;13.486;2023-01-26T01:09:29;101808.22;;;-0.37;100.00
55610;BME280;41486;52.502;13.486;2023-01-26T01:11:57;101805.31;;;-0.13;100.00
55610;BME280;41486;52.502;13.486;2023-01-26T01:14:26;101799.31;;;-0.14;100.00
55610;BME280;41486;52.502;13.486;2023-01-26T01:16:54;101805.53;;;-0.32;100.00
55610;BME280;41486;52.502;13.486;2023-01-26T01:19:22;101799.63;;;-0.40;100.00
55610;BME280;41486;52.502;13.486;2023-01-26T01:21:50;101799.56;;;-0.36;100.00
55610;BME280;41486;52.502;13.486;2023-01-26T01:24:18;101797.16;;;-0.50;100.00
55610;BME280;41486;52.502;13.486;2023-01-26T01:26:47;101796.91;;;-0.31;100.00
55610;BME280;41486;52.502;13.486;2023-01-26T01:29:16;101802.34;;;-0.53;100.00
55610;BME280;41486;52.502;13.486;2023-01-26T01:31:44;101787.66;;;-0.49;100.00
55610;BME280;41486;52.502;13.486;2023-01-26T01:34:12;101791.84;;;-0.39;100.00
55610;BME280;41486;52.502;13.486;2023-01-26T01:36:40;101789.97;;;-0.26;100.00
55610;BME280;41486;52.502;13.486;2023-01-26T01:39:08;101783.78;;;-0.14;100.00
55610;BME280;41486;52.502;13.486;2023-01-26T01:41:36;101786.63;;;-0.34;100.00
55610;BME280;41486;52.502;13.486;2023-01-26T01:44:17;101784.78;;;-0.27;100.00
55610;BME280;41486;52.502;13.486;2023-01-26T01:46:48;101783.88;;;-0.20;100.00
55610;BME280;41486;52.502;13.486;2023-01-26T01:49:19;101783.69;;;-0.08;100.00
55610;BME280;41486;52.502;13.486;2023-01-26T01:51:52;101774.47;;;-0.29;100.00
55610;BME280;41486;52.502;13.486;2023-01-26T01:54:26;101774.44;;;-0.27;100.00
55610;BME280;41486;52.502;13.486;2023-01-26T01:56:57;101764.31;;;-0.41;100.00
55610;BME280;41486;52.502;13.486;2023-01-26T01:59:29;101764.88;;;-0.21;100.00
55610;BME280;41486;52.502;13.486;2023-01-26T02:01:58;101760.91;;;-0.46;100.00
55610;BME280;41486;52.502;13.486;2023-01-26T02:04:26;101755.41;;;-0.20;100.00
55610;BME280;41486;52.502;13.486;2023-01-26T02:06:56;101758.09;;;-0.31;100.00
55610;BME280;41486;52.502;13.486;2023-01-26T02:09:29;101749.56;;;-0.36;100.00
55610;BME280;41486;52.502;13.486;2023-01-26T02:12:17;101753.09;;;-0.42;100.00
55610;BME280;41486;52.502;13.486;2023-01-26T02:14:49;101752.88;;;-0.26;100.00
55610;BME280;41486;52.502;13.486;2023-01-26T02:17:20;101744.44;;;-0.39;100.00
55610;BME280;41486;52.502;13.486;2023-01-26T02:19:57;101739.78;;;-0.16;100.00
55610;BME280;41486;52.502;13.486;2023-01-26T02:22:36;101737.22;;;-0.16;100.00
55610;BME280;41486;52.502;13.486;2023-01-26T02:25:20;101734.22;;;-0.50;100.00
55610;BME280;41486;52.502;13.486;2023-01-26T02:27:51;101724.81;;;-0.56;100.00
55610;BME280;41486;52.502;13.486;2023-01-26T02:30:21;101726.22;;;-0.32;100.00
55610;BME280;41486;52.502;13.486;2023-01-26T02:32:49;101725.06;;;-0.09;100.00
55610;BME280;41486;52.502;13.486;2023-01-26T02:35:17;101721.28;;;0.12;100.00
55610;BME280;41486;52.502;13.486;2023-01-26T02:37:45;101711.81;;;0.11;100.00
55610;BME280;41486;52.502;13.486;2023-01-26T02:40:22;101704.31;;;-0.07;100.00
55610;BME280;41486;52.502;13.486;2023-01-26T02:42:53;101701.97;;;-0.21;100.00
55610;BME280;41486;52.502;13.486;2023-01-26T02:45:21;101702.19;;;-0.40;100.00
55610;BME280;41486;52.502;13.486;2023-01-26T02:47:50;101701.19;;;-0.28;100.00
55610;BME280;41486;52.502;13.486;2023-01-26T02:50:18;101696.91;;;-0.30;100.00
55610;BME280;41486;52.502;13.486;2023-01-26T02:52:45;101701.00;;;-0.17;100.00
55610;BME280;41486;52.502;13.486;2023-01-26T02:55:16;101695.72;;;-0.08;100.00
55610;BME280;41486;52.502;13.486;2023-01-26T02:57:54;101703.28;;;0.05;100.00
55610;BME280;41486;52.502;13.486;2023-01-26T03:00:24;101695.38;;;0.15;100.00
55610;BME280;41486;52.502;13.486;2023-01-26T03:02:54;101699.59;;;0.20;100.00
55610;BME280;41486;52.502;13.486;2023-01-26T03:05:24;101694.91;;;-0.11;100.00
55610;BME280;41486;52.502;13.486;2023-01-26T03:07:53;101700.19;;;-0.19;100.00
55610;BME280;41486;52.502;13.486;2023-01-26T03:10:25;101700.13;;;-0.13;100.00
55610;BME280;41486;52.502;13.486;2023-01-26T03:12:54;101702.56;;;-0.05;100.00
55610;BME280;41486;52.502;13.486;2023-01-26T03:15:22;101694.19;;;-0.21;100.00
55610;BME280;41486;52.502;13.486;2023-01-26T03:18:12;101693.63;;;-0.43;100.00
55610;BME280;41486;52.502;13.486;2023-01-26T03:20:54;101697.50;;;-0.11;100.00
55610;BME280;41486;52.502;13.486;2023-01-26T03:23:41;101697.53;;;-0.13;100.00
55610;BME280;41486;52.502;13.486;2023-01-26T03:26:27;101702.44;;;0.04;100.00
55610;BME280;41486;52.502;13.486;2023-01-26T03:29:14;101698.19;;;0.00;100.00
55610;BME280;41486;52.502;13.486;2023-01-26T03:31:42;101696.22;;;-0.43;100.00
55610;BME280;41486;52.502;13.486;2023-01-26T03:34:11;101691.00;;;-0.42;100.00
55610;BME280;41486;52.502;13.486;2023-01-26T03:36:39;101691.75;;;-0.34;100.00
55610;BME280;41486;52.502;13.486;2023-01-26T03:39:11;101684.78;;;-0.27;100.00
55610;BME280;41486;52.502;13.486;2023-01-26T03:42:00;101684.41;;;-0.02;100.00
55610;BME280;41486;52.502;13.486;2023-01-26T03:44:47;101686.09;;;0.01;100.00
55610;BME280;41486;52.502;13.486;2023-01-26T03:47:36;101681.63;;;0.10;100.00
55610;BME280;41486;52.502;13.486;2023-01-26T03:50:22;101685.13;;;0.08;100.00
55610;BME280;41486;52.502;13.486;2023-01-26T03:53:15;101696.47;;;-0.03;100.00
55610;BME280;41486;52.502;13.486;2023-01-26T03:56:01;101692.03;;;0.06;100.00
55610;BME280;41486;52.502;13.486;2023-01-26T03:58:54;101700.63;;;0.09;100.00
55610;BME280;41486;52.502;13.486;2023-01-26T04:01:28;101694.63;;;0.06;100.00
55610;BME280;41486;52.502;13.486;2023-01-26T04:03:59;101693.59;;;0.18;100.00
55610;BME280;41486;52.502;13.486;2023-01-26T04:06:47;101682.56;;;0.05;100.00
55610;BME280;41486;52.502;13.486;2023-01-26T04:09:35;101682.53;;;0.08;100.00
55610;BME280;41486;52.502;13.486;2023-01-26T04:12:05;101684.13;;;0.15;100.00
55610;BME280;41486;52.502;13.486;2023-01-26T04:14:42;101674.81;;;0.05;100.00
55610;BME280;41486;52.502;13.486;2023-01-26T04:17:29;101673.13;;;0.04;100.00
55610;BME280;41486;52.502;13.486;2023-01-26T04:20:15;101671.31;;;0.09;100.00
55610;BME280;41486;52.502;13.486;2023-01-26T04:23:00;101672.00;;;0.19;100.00
55610;BME280;41486;52.502;13.486;2023-01-26T04:25:28;101665.91;;;-0.34;100.00
55610;BME280;41486;52.502;13.486;2023-01-26T04:27:57;101667.44;;;-0.22;100.00
55610;BME280;41486;52.502;13.486;2023-01-26T04:30:24;101662.28;;;-0.22;100.00
55610;BME280;41486;52.502;13.486;2023-01-26T04:32:54;101658.66;;;-0.08;100.00
55610;BME280;41486;52.502;13.486;2023-01-26T04:35:22;101655.25;;;-0.13;100.00
55610;BME280;41486;52.502;13.486;2023-01-26T04:37:50;101655.31;;;-0.17;100.00
55610;BME280;41486;52.502;13.486;2023-01-26T04:40:18;101660.00;;;0.14;100.00
55610;BME280;41486;52.502;13.486;2023-01-26T04:42:47;101662.31;;;-0.23;100.00
55610;BME280;41486;52.502;13.486;2023-01-26T04:45:15;101655.31;;;-0.18;100.00
55610;BME280;41486;52.502;13.486;2023-01-26T04:47:44;101655.28;;;-0.15;100.00
55610;BME280;41486;52.502;13.486;2023-01-26T04:50:16;101657.06;;;-0.19;100.00
55610;BME280;41486;52.502;13.486;2023-01-26T04:52:45;101646.81;;;-0.26;100.00
55610;BME280;41486;52.502;13.486;2023-01-26T04:55:14;101649.09;;;-0.05;100.00
55610;BME280;41486;52.502;13.486;2023-01-26T04:57:42;101644.84;;;-0.09;100.00
55610;BME280;41486;52.502;13.486;2023-01-26T05:00:11;101644.38;;;-0.36;100.00
55610;BME280;41486;52.502;13.486;2023-01-26T05:02:40;101640.84;;;-0.28;100.00
55610;BME280;41486;52.502;13.486;2023-01-26T05:05:09;101635.97;;;0.05;100.00
55610;BME280;41486;52.502;13.486;2023-01-26T05:07:39;101633.50;;;-0.02;100.00
55610;BME280;41486;52.502;13.486;2023-01-26T05:10:08;101628.84;;;0.21;100.00
55610;BME280;41486;52.502;13.486;2023-01-26T05:12:53;101625.63;;;0.06;100.00
55610;BME280;41486;52.502;13.486;2023-01-26T05:15:30;101629.94;;;0.07;100.00
55610;BME280;41486;52.502;13.486;2023-01-26T05:18:04;101621.19;;;0.13;100.00
55610;BME280;41486;52.502;13.486;2023-01-26T05:20:58;101631.53;;;0.13;100.00
55610;BME280;41486;52.502;13.486;2023-01-26T05:23:34;101633.53;;;-0.03;100.00
55610;BME280;41486;52.502;13.486;2023-01-26T05:26:17;101631.03;;;-0.08;100.00
55610;BME280;41486;52.502;13.486;2023-01-26T05:28:57;101635.09;;;0.06;100.00
55610;BME280;41486;52.502;13.486;2023-01-26T05:31:25;101634.53;;;-0.12;100.00
55610;BME280;41486;52.502;13.486;2023-01-26T05:33:54;101640.00;;;-0.30;100.00
55610;BME280;41486;52.502;13.486;2023-01-26T05:36:23;101639.19;;;-0.34;100.00
55610;BME280;41486;52.502;13.486;2023-01-26T05:38:52;101638.25;;;-0.28;100.00
55610;BME280;41486;52.502;13.486;2023-01-26T05:41:23;101629.59;;;-0.27;100.00
55610;BME280;41486;52.502;13.486;2023-01-26T05:44:07;101635.41;;;-0.11;100.00
55610;BME280;41486;52.502;13.486;2023-01-26T05:46:47;101644.22;;;-0.25;100.00
55610;BME280;41486;52.502;13.486;2023-01-26T05:49:15;101642.00;;;-0.51;100.00
55610;BME280;41486;52.502;13.486;2023-01-26T05:51:43;101647.19;;;-0.51;100.00
55610;BME280;41486;52.502;13.486;2023-01-26T05:54:13;101646.94;;;-0.34;100.00
55610;BME280;41486;52.502;13.486;2023-01-26T05:56:42;101648.59;;;-0.28;100.00
55610;BME280;41486;52.502;13.486;2023-01-26T05:59:10;101643.47;;;-0.32;100.00
55610;BME280;41486;52.502;13.486;2023-01-26T06:01:37;101645.06;;;-0.24;100.00
55610;BME280;41486;52.502;13.486;2023-01-26T06:04:07;101645.94;;;-0.25;100.00
55610;BME280;41486;52.502;13.486;2023-01-26T06:06:44;101631.31;;;-0.26;100.00
55610;BME280;41486;52.502;13.486;2023-01-26T06:09:25;101632.03;;;-0.18;100.00
55610;BME280;41486;52.502;13.486;2023-01-26T06:12:14;101640.97;;;-0.38;100.00
55610;BME280;41486;52.502;13.486;2023-01-26T06:14:54;101643.25;;;-0.19;100.00
55610;BME280;41486;52.502;13.486;2023-01-26T06:17:30;101638.78;;;-0.08;100.00
55610;BME280;41486;52.502;13.486;2023-01-26T06:20:01;101646.34;;;0.05;100.00
55610;BME280;41486;52.502;13.486;2023-01-26T06:22:30;101647.88;;;0.18;100.00
55610;BME280;41486;52.502;13.486;2023-01-26T06:24:59;101641.41;;;-0.09;100.00
55610;BME280;41486;52.502;13.486;2023-01-26T06:27:28;101653.16;;;0.12;100.00
55610;BME280;41486;52.502;13.486;2023-01-26T06:29:59;101647.75;;;0.24;100.00
55610;BME280;41486;52.502;13.486;2023-01-26T06:32:27;101654.03;;;0.09;100.00
55610;BME280;41486;52.502;13.486;2023-01-26T06:34:56;101641.88;;;0.13;100.00
55610;BME280;41486;52.502;13.486;2023-01-26T06:37:24;101643.59;;;0.15;100.00
55610;BME280;41486;52.502;13.486;2023-01-26T06:39:53;101647.09;;;0.11;100.00
55610;BME280;41486;52.502;13.486;2023-01-26T06:42:22;101641.97;;;0.08;100.00
55610;BME280;41486;52.502;13.486;2023-01-26T06:44:53;101650.59;;;0.09;100.00
55610;BME280;41486;52.502;13.486;2023-01-26T06:47:23;101649.03;;;-0.02;100.00
55610;BME280;41486;52.502;13.486;2023-01-26T06:49:53;101645.63;;;-0.05;100.00
55610;BME280;41486;52.502;13.486;2023-01-26T06:52:25;101652.53;;;-0.04;100.00
55610;BME280;41486;52.502;13.486;2023-01-26T06:54:59;101653.47;;;-0.10;100.00
55610;BME280;41486;52.502;13.486;2023-01-26T06:58:04;101641.41;;;-0.11;100.00
55610;BME280;41486;52.502;13.486;2023-01-26T07:01:04;101650.91;;;-0.11;100.00
55610;BME280;41486;52.502;13.486;2023-01-26T07:03:33;101647.59;;;-0.20;100.00
55610;BME280;41486;52.502;13.486;2023-01-26T07:06:01;101647.59;;;-0.20;100.00
55610;BME280;41486;52.502;13.486;2023-01-26T07:08:29;101648.72;;;-0.39;100.00
55610;BME280;41486;52.502;13.486;2023-01-26T07:10:57;101644.66;;;-0.56;100.00
55610;BME280;41486;52.502;13.486;2023-01-26T07:13:26;101647.97;;;-0.48;100.00
55610;BME280;41486;52.502;13.486;2023-01-26T07:15:59;101660.16;;;-0.54;100.00
55610;BME280;41486;52.502;13.486;2023-01-26T07:18:27;101658.03;;;-0.27;100.00
55610;BME280;41486;52.502;13.486;2023-01-26T07:20:59;101652.72;;;-0.18;100.00
55610;BME280;41486;52.502;13.486;2023-01-26T07:23:27;101656.63;;;-0.47;100.00
55610;BME280;41486;52.502;13.486;2023-01-26T07:25:58;101653.72;;;-0.25;100.00
55610;BME280;41486;52.502;13.486;2023-01-26T07:28:32;101650.03;;;-0.12;100.00
55610;BME280;41486;52.502;13.486;2023-01-26T07:31:06;101654.69;;;-0.33;100.00
55610;BME280;41486;52.502;13.486;2023-01-26T07:33:34;101656.19;;;-0.18;100.00
55610;BME280;41486;52.502;13.486;2023-01-26T07:36:06;101656.22;;;-0.21;100.00
55610;BME280;41486;52.502;13.486;2023-01-26T07:38:34;101656.25;;;-0.24;100.00
55610;BME280;41486;52.502;13.486;2023-01-26T07:41:08;101658.06;;;-0.29;100.00
55610;BME280;41486;52.502;13.486;2023-01-26T07:43:38;101646.88;;;-0.29;100.00
55610;BME280;41486;52.502;13.486;2023-01-26T07:46:07;101656.25;;;-0.24;100.00
55610;BME280;41486;52.502;13.486;2023-01-26T07:48:37;101656.28;;;-0.25;100.00
55610;BME280;41486;52.502;13.486;2023-01-26T07:51:06;101656.31;;;-0.27;100.00
55610;BME280;41486;52.502;13.486;2023-01-26T07:53:36;101650.41;;;-0.35;100.00
55610;BME280;41486;52.502;13.486;2023-01-26T07:56:07;101665.88;;;-0.30;100.00
55610;BME280;41486;52.502;13.486;2023-01-26T07:58:37;101661.56;;;-0.32;100.00
55610;BME280;41486;52.502;13.486;2023-01-26T08:01:10;101656.28;;;-0.25;100.00
55610;BME280;41486;52.502;13.486;2023-01-26T08:03:39;101665.00;;;-0.31;100.00
55610;BME280;41486;52.502;13.486;2023-01-26T08:06:11;101664.31;;;-0.44;100.00
55610;BME280;41486;52.502;13.486;2023-01-26T08:08:42;101665.25;;;-0.48;100.00
55610;BME280;41486;52.502;13.486;2023-01-26T08:11:10;101666.75;;;-0.32;100.00
55610;BME280;41486;52.502;13.486;2023-01-26T08:13:46;101674.59;;;-0.38;100.00
55610;BME280;41486;52.502;13.486;2023-01-26T08:16:17;101675.50;;;-0.40;100.00
55610;BME280;41486;52.502;13.486;2023-01-26T08:18:46;101669.69;;;-0.58;100.00
55610;BME280;41486;52.502;13.486;2023-01-26T08:21:19;101670.72;;;-0.70;100.00
55610;BME280;41486;52.502;13.486;2023-01-26T08:23:48;101669.59;;;-0.52;100.00
55610;BME280;41486;52.502;13.486;2023-01-26T08:26:21;101674.81;;;-0.53;100.00
55610;BME280;41486;52.502;13.486;2023-01-26T08:28:52;101674.84;;;-0.56;100.00
55610;BME280;41486;52.502;13.486;2023-01-26T08:31:21;101680.84;;;-0.56;100.00
55610;BME280;41486;52.502;13.486;2023-01-26T08:33:51;101685.19;;;-0.56;100.00
55610;BME280;41486;52.502;13.486;2023-01-26T08:36:21;101667.00;;;-0.49;100.00
55610;BME280;41486;52.502;13.486;2023-01-26T08:38:49;101664.66;;;-0.70;100.00
55610;BME280;41486;52.502;13.486;2023-01-26T08:41:18;101673.03;;;-0.51;100.00
55610;BME280;41486;52.502;13.486;2023-01-26T08:43:46;101665.31;;;-0.53;100.00
55610;BME280;41486;52.502;13.486;2023-01-26T08:46:16;101662.75;;;-0.56;100.00
55610;BME280;41486;52.502;13.486;2023-01-26T08:48:45;101669.63;;;-0.55;100.00
55610;BME280;41486;52.502;13.486;2023-01-26T08:51:13;101669.69;;;-0.59;100.00
55610;BME280;41486;52.502;13.486;2023-01-26T08:53:41;101677.56;;;-0.67;100.00
55610;BME280;41486;52.502;13.486;2023-01-26T08:56:10;101674.06;;;-0.63;100.00
55610;BME280;41486;52.502;13.486;2023-01-26T08:58:38;101671.56;;;-0.69;100.00
55610;BME280;41486;52.502;13.486;2023-01-26T09:01:09;101676.75;;;-0.71;100.00
55610;BME280;41486;52.502;13.486;2023-01-26T09:03:39;101674.09;;;-0.65;100.00
55610;BME280;41486;52.502;13.486;2023-01-26T09:06:08;101677.59;;;-0.69;100.00
55610;BME280;41486;52.502;13.486;2023-01-26T09:08:37;101678.38;;;-0.64;100.00
55610;BME280;41486;52.502;13.486;2023-01-26T09:11:05;101674.94;;;-0.66;100.00
55610;BME280;41486;52.502;13.486;2023-01-26T09:13:33;101680.47;;;-0.93;100.00
55610;BME280;41486;52.502;13.486;2023-01-26T09:16:02;101683.75;;;-0.79;100.00
55610;BME280;41486;52.502;13.486;2023-01-26T09:18:31;101688.91;;;-0.79;100.00
55610;BME280;41486;52.502;13.486;2023-01-26T09:21:05;101678.53;;;-0.74;100.00
55610;BME280;41486;52.502;13.486;2023-01-26T09:23:34;101683.75;;;-0.79;100.00
55610;BME280;41486;52.502;13.486;2023-01-26T09:26:02;101693.19;;;-0.76;100.00
55610;BME280;41486;52.502;13.486;2023-01-26T09:28:30;101691.38;;;-0.71;100.00
55610;BME280;41486;52.502;13.486;2023-01-26T09:31:02;101696.97;;;-1.05;100.00
55610;BME280;41486;52.502;13.486;2023-01-26T09:33:30;101706.56;;;-1.20;100.00
55610;BME280;41486;52.502;13.486;2023-01-26T09:36:04;101694.16;;;-0.87;100.00
55610;BME280;41486;52.502;13.486;2023-01-26T09:38:32;101686.34;;;-0.79;100.00
55610;BME280;41486;52.502;13.486;2023-01-26T09:41:04;101689.00;;;-0.85;100.00
55610;BME280;41486;52.502;13.486;2023-01-26T09:43:37;101689.28;;;-1.10;100.00
55610;BME280;41486;52.502;13.486;2023-01-26T09:46:20;101694.97;;;-0.82;100.00
55610;BME280;41486;52.502;13.486;2023-01-26T09:48:58;101690.75;;;-0.90;100.00
55610;BME280;41486;52.502;13.486;2023-01-26T09:51:32;101676.75;;;-0.71;100.00
55610;BME280;41486;52.502;13.486;2023-01-26T09:54:05;101687.97;;;-0.72;100.00
55610;BME280;41486;52.502;13.486;2023-01-26T09:56:39;101687.97;;;-0.72;100.00
55610;BME280;41486;52.502;13.486;2023-01-26T09:59:17;101688.81;;;-0.71;100.00
55610;BME280;41486;52.502;13.486;2023-01-26T10:01:53;101686.34;;;-0.79;100.00
55610;BME280;41486;52.502;13.486;2023-01-26T10:04:28;101686.94;;;-0.60;100.00
55610;BME280;41486;52.502;13.486;2023-01-26T10:07:02;101682.34;;;-1.06;100.00
55610;BME280;41486;52.502;13.486;2023-01-26T10:09:50;101676.72;;;-0.69;100.00
55610;BME280;41486;52.502;13.486;2023-01-26T10:12:22;101682.63;;;-0.59;100.00
55610;BME280;41486;52.502;13.486;2023-01-26T10:14:52;101676.75;;;-0.71;100.00
55610;BME280;41486;52.502;13.486;2023-01-26T10:17:29;101670.59;;;-0.60;100.00
55610;BME280;41486;52.502;13.486;2023-01-26T10:20:02;101661.19;;;-0.66;100.00
55610;BME280;41486;52.502;13.486;2023-01-26T10:22:44;101657.78;;;-0.70;100.00
55610;BME280;41486;52.502;13.486;2023-01-26T10:25:15;101653.44;;;-0.66;100.00
55610;BME280;41486;52.502;13.486;2023-01-26T10:27:44;101661.31;;;-0.77;100.00
55610;BME280;41486;52.502;13.486;2023-01-26T10:30:13;101668.88;;;-0.63;100.00
55610;BME280;41486;52.502;13.486;2023-01-26T10:32:43;101659.44;;;-0.66;100.00
55610;BME280;41486;52.502;13.486;2023-01-26T10:35:17;101646.56;;;-0.69;100.00
55610;BME280;41486;52.502;13.486;2023-01-26T10:37:47;101645.69;;;-0.69;100.00
55610;BME280;41486;52.502;13.486;2023-01-26T10:40:18;101647.56;;;-0.79;100.00
55610;BME280;41486;52.502;13.486;2023-01-26T10:42:54;101638.94;;;-0.78;100.00
55610;BME280;41486;52.502;13.486;2023-01-26T10:45:26;101636.25;;;-0.72;100.00
55610;BME280;41486;52.502;13.486;2023-01-26T10:48:02;101630.53;;;-0.96;100.00
55610;BME280;41486;52.502;13.486;2023-01-26T10:50:30;101628.22;;;-1.17;100.00
55610;BME280;41486;52.502;13.486;2023-01-26T10:53:01;101628.28;;;-1.25;100.00
55610;BME280;41486;52.502;13.486;2023-01-26T10:55:31;101625.69;;;-1.23;100.00
55610;BME280;41486;52.502;13.486;2023-01-26T10:58:02;101617.50;;;-0.88;100.00
55610;BME280;41486;52.502;13.486;2023-01-26T11:00:33;101617.34;;;-0.72;100.00
55610;BME280;41486;52.502;13.486;2023-01-26T11:03:15;101615.94;;;-0.98;100.00
55610;BME280;41486;52.502;13.486;2023-01-26T11:05:43;101606.56;;;-1.05;100.00
55610;BME280;41486;52.502;13.486;2023-01-26T11:08:33;101624.59;;;-1.04;100.00
55610;BME280;41486;52.502;13.486;2023-01-26T11:11:02;101622.91;;;-1.05;100.00
55610;BME280;41486;52.502;13.486;2023-01-26T11:13:32;101617.25;;;-0.66;100.00
55610;BME280;41486;52.502;13.486;2023-01-26T11:16:02;101617.13;;;-0.58;100.00
55610;BME280;41486;52.502;13.486;2023-01-26T11:18:40;101617.38;;;-0.77;100.00
55610;BME280;41486;52.502;13.486;2023-01-26T11:21:12;101612.00;;;-0.63;100.00
55610;BME280;41486;52.502;13.486;2023-01-26T11:23:58;101613.53;;;-0.48;100.00
55610;BME280;41486;52.502;13.486;2023-01-26T11:29:49;101608.03;;;-0.87;100.00
55610;BME280;41486;52.502;13.486;2023-01-26T11:32:27;101602.19;;;-1.02;100.00
55610;BME280;41486;52.502;13.486;2023-01-26T11:35:07;101599.81;;;-0.53;100.00
55610;BME280;41486;52.502;13.486;2023-01-26T11:37:42;101603.06;;;-0.39;100.00
55610;BME280;41486;52.502;13.486;2023-01-26T11:40:23;101594.28;;;-0.30;100.00
55610;BME280;41486;52.502;13.486;2023-01-26T11:43:05;101590.06;;;-0.36;100.00
55610;BME280;41486;52.502;13.486;2023-01-26T11:46:00;101584.97;;;-0.42;100.00
55610;BME280;41486;52.502;13.486;2023-01-26T11:48:38;101589.19;;;-0.33;100.00
55610;BME280;41486;52.502;13.486;2023-01-26T11:51:16;101575.50;;;-0.41;100.00
55610;BME280;41486;52.502;13.486;2023-01-26T11:54:18;101578.84;;;-0.35;100.00
55610;BME280;41486;52.502;13.486;2023-01-26T11:56:55;101572.06;;;-0.42;100.00
55610;BME280;41486;52.502;13.486;2023-01-26T11:59:33;101568.88;;;-0.58;100.00
55610;BME280;41486;52.502;13.486;2023-01-26T12:02:09;101575.50;;;-0.41;100.00
55610;BME280;41486;52.502;13.486;2023-01-26T12:04:44;101568.00;;;-0.57;100.00
55610;BME280;41486;52.502;13.486;2023-01-26T12:07:20;101563.47;;;-0.44;100.00
55610;BME280;41486;52.502;13.486;2023-01-26T12:09:50;101564.28;;;-0.42;100.00
55610;BME280;41486;52.502;13.486;2023-01-26T12:12:27;101564.28;;;-0.40;100.00
55610;BME280;41486;52.502;13.486;2023-01-26T12:15:01;101554.47;;;-0.77;100.00
55610;BME280;41486;52.502;13.486;2023-01-26T12:17:41;101549.84;;;-0.55;100.00
55610;BME280;41486;52.502;13.486;2023-01-26T12:20:22;101545.19;;;-0.89;100.00
55610;BME280;41486;52.502;13.486;2023-01-26T12:22:54;101534.75;;;-0.82;100.00
55610;BME280;41486;52.502;13.486;2023-01-26T12:25:28;101529.22;;;-0.58;100.00
55610;BME280;41486;52.502;13.486;2023-01-26T12:28:12;101522.22;;;-0.52;100.00
55610;BME280;41486;52.502;13.486;2023-01-26T12:30:49;101528.31;;;-0.54;100.00
55610;BME280;41486;52.502;13.486;2023-01-26T12:33:18;101530.94;;;-0.57;100.00
55610;BME280;41486;52.502;13.486;2023-01-26T12:36:02;101528.53;;;-0.70;100.00
55610;BME280;41486;52.502;13.486;2023-01-26T12:38:44;101527.81;;;-0.80;100.00
55610;BME280;41486;52.502;13.486;2023-01-26T12:41:30;101526.72;;;-0.65;100.00
55610;BME280;41486;52.502;13.486;2023-01-26T12:44:13;101518.03;;;-0.59;100.00
55610;BME280;41486;52.502;13.486;2023-01-26T12:46:48;101513.25;;;-0.30;100.00
55610;BME280;41486;52.502;13.486;2023-01-26T12:49:20;101514.97;;;-0.31;100.00
55610;BME280;41486;52.502;13.486;2023-01-26T12:51:55;101518.19;;;-0.71;100.00
55610;BME280;41486;52.502;13.486;2023-01-26T12:54:31;101516.06;;;-0.44;100.00
55610;BME280;41486;52.502;13.486;2023-01-26T12:57:03;101520.41;;;-0.45;100.00
55610;BME280;41486;52.502;13.486;2023-01-26T12:59:38;101517.78;;;-0.43;100.00
55610;BME280;41486;52.502;13.486;2023-01-26T13:02:32;101518.69;;;-0.46;100.00
55610;BME280;41486;52.502;13.486;2023-01-26T13:05:03;101512.69;;;-0.48;100.00
55610;BME280;41486;52.502;13.486;2023-01-26T13:07:35;101530.63;;;-0.39;100.00